sensor_id;sensor_type;location;lat;lon;timestamp;pressure;altitude;pressure_sealevel;temperature;humidity
62103;BME280;48077;48.104;11.702;2023-07-31T00:00:39;95671.81;;;15.10;92.28
62103;BME280;48077;48.104;11.702;2023-07-31T00:07:40;95670.66;;;15.01;93.11
62103;BME280;48077;48.104;11.702;2023-07-31T00:10:04;95661.19;;;14.93;93.66
62103;BME280;48077;48.104;11.702;2023-07-31T00:12:27;95657.16;;;14.90;94.54
62103;BME280;48077;48.104;11.702;2023-07-31T00:14:54;95658.47;;;14.88;94.89
62103;BME280;48077;48.104;11.702;2023-07-31T00:17:17;95664.59;;;14.83;95.28
62103;BME280;48077;48.104;11.702;2023-07-31T00:19:41;95648.41;;;14.73;95.68
62103;BME280;48077;48.104;11.702;2023-07-31T00:22:04;95658.06;;;14.74;95.74
62103;BME280;48077;48.104;11.702;2023-07-31T00:24:28;95649.44;;;14.67;96.29
62103;BME280;48077;48.104;11.702;2023-07-31T00:26:51;95652.06;;;14.62;96.06
62103;BME280;48077;48.104;11.702;2023-07-31T00:29:14;95653.38;;;14.59;96.75
62103;BME280;48077;48.104;11.702;2023-07-31T00:31:38;95651.91;;;14.51;96.84
62103;BME280;48077;48.104;11.702;2023-07-31T00:34:01;95645.41;;;14.42;97.16
62103;BME280;48077;48.104;11.702;2023-07-31T00:36:25;95644.78;;;14.35;98.09
62103;BME280;48077;48.104;11.702;2023-07-31T00:38:48;95647.72;;;14.33;98.17
62103;BME280;48077;48.104;11.702;2023-07-31T00:41:12;95656.06;;;14.37;99.19
62103;BME280;48077;48.104;11.702;2023-07-31T00:43:35;95649.59;;;14.33;99.76
62103;BME280;48077;48.104;11.702;2023-07-31T00:45:59;95649.28;;;14.29;99.97
62103;BME280;48077;48.104;11.702;2023-07-31T00:48:23;95637.91;;;14.17;100.00
62103;BME280;48077;48.104;11.702;2023-07-31T00:50:46;95629.53;;;14.13;100.00
62103;BME280;48077;48.104;11.702;2023-07-31T00:53:10;95635.09;;;14.07;100.00
62103;BME280;48077;48.104;11.702;2023-07-31T00:55:33;95640.50;;;14.12;100.00
62103;BME280;48077;48.104;11.702;2023-07-31T00:57:57;95628.63;;;14.03;100.00
62103;BME280;48077;48.104;11.702;2023-07-31T01:00:21;95636.22;;;14.11;100.00
62103;BME280;48077;48.104;11.702;2023-07-31T01:02:44;95637.34;;;14.15;100.00
62103;BME280;48077;48.104;11.702;2023-07-31T01:05:08;95629.22;;;14.10;100.00
62103;BME280;48077;48.104;11.702;2023-07-31T01:10:16;95640.31;;;14.18;100.00
62103;BME280;48077;48.104;11.702;2023-07-31T01:12:45;95636.25;;;14.16;100.00
62103;BME280;48077;48.104;11.702;2023-07-31T01:15:09;95622.81;;;14.11;100.00
62103;BME280;48077;48.104;11.702;2023-07-31T01:17:37;95629.00;;;14.16;100.00
62103;BME280;48077;48.104;11.702;2023-07-31T01:20:03;95622.53;;;14.12;100.00
62103;BME280;48077;48.104;11.702;2023-07-31T01:28:01;95619.13;;;14.17;100.00
62103;BME280;48077;48.104;11.702;2023-07-31T01:30:27;95617.00;;;14.19;100.00
62103;BME280;48077;48.104;11.702;2023-07-31T01:32:55;95610.56;;;14.20;100.00
62103;BME280;48077;48.104;11.702;2023-07-31T01:35:20;95615.91;;;14.20;100.00
62103;BME280;48077;48.104;11.702;2023-07-31T01:37:43;95605.19;;;14.20;100.00
62103;BME280;48077;48.104;11.702;2023-07-31T01:40:08;95606.28;;;14.19;100.00
62103;BME280;48077;48.104;11.702;2023-07-31T01:42:32;95603.59;;;14.19;100.00
62103;BME280;48077;48.104;11.702;2023-07-31T01:44:55;95609.63;;;14.31;100.00
62103;BME280;48077;48.104;11.702;2023-07-31T01:47:18;95611.22;;;14.32;100.00
62103;BME280;48077;48.104;11.702;2023-07-31T01:49:42;95603.13;;;14.27;100.00
62103;BME280;48077;48.104;11.702;2023-07-31T01:52:08;95603.97;;;14.33;100.00
62103;BME280;48077;48.104;11.702;2023-07-31T01:54:31;95596.69;;;14.28;100.00
62103;BME280;48077;48.104;11.702;2023-07-31T01:56:54;95598.06;;;14.31;100.00
62103;BME280;48077;48.104;11.702;2023-07-31T01:59:18;95605.91;;;14.37;100.00
62103;BME280;48077;48.104;11.702;2023-07-31T02:01:41;95591.63;;;14.32;100.00
62103;BME280;48077;48.104;11.702;2023-07-31T02:04:05;95603.16;;;14.32;100.00
62103;BME280;48077;48.104;11.702;2023-07-31T02:06:29;95601.25;;;14.28;100.00
62103;BME280;48077;48.104;11.702;2023-07-31T02:08:52;95600.69;;;14.26;100.00
62103;BME280;48077;48.104;11.702;2023-07-31T02:11:15;95601.75;;;14.25;100.00
62103;BME280;48077;48.104;11.702;2023-07-31T02:13:39;95582.84;;;14.14;100.00
62103;BME280;48077;48.104;11.702;2023-07-31T02:16:02;95576.94;;;14.12;100.00
62103;BME280;48077;48.104;11.702;2023-07-31T02:18:26;95592.59;;;14.21;100.00
62103;BME280;48077;48.104;11.702;2023-07-31T02:20:52;95578.38;;;14.20;100.00
62103;BME280;48077;48.104;11.702;2023-07-31T02:23:15;95583.97;;;14.18;100.00
62103;BME280;48077;48.104;11.702;2023-07-31T02:25:39;95573.81;;;14.21;100.00
62103;BME280;48077;48.104;11.702;2023-07-31T02:28:02;95545.53;;;14.08;100.00
62103;BME280;48077;48.104;11.702;2023-07-31T02:30:25;95563.63;;;14.23;100.00
62103;BME280;48077;48.104;11.702;2023-07-31T02:32:51;95566.31;;;14.23;100.00
62103;BME280;48077;48.104;11.702;2023-07-31T02:35:14;95553.13;;;14.16;100.00
62103;BME280;48077;48.104;11.702;2023-07-31T02:37:38;95559.03;;;14.18;100.00
62103;BME280;48077;48.104;11.702;2023-07-31T02:40:02;95549.03;;;14.08;100.00
62103;BME280;48077;48.104;11.702;2023-07-31T02:42:25;95577.31;;;14.21;100.00
62103;BME280;48077;48.104;11.702;2023-07-31T02:44:48;95558.16;;;14.12;100.00
62103;BME280;48077;48.104;11.702;2023-07-31T02:47:14;95540.69;;;14.05;100.00
62103;BME280;48077;48.104;11.702;2023-07-31T02:49:37;95555.78;;;14.16;100.00
62103;BME280;48077;48.104;11.702;2023-07-31T02:52:01;95557.44;;;14.17;100.00
62103;BME280;48077;48.104;11.702;2023-07-31T02:54:24;95541.81;;;14.14;100.00
62103;BME280;48077;48.104;11.702;2023-07-31T02:56:48;95561.72;;;14.18;100.00
62103;BME280;48077;48.104;11.702;2023-07-31T02:59:11;95549.50;;;14.00;100.00
62103;BME280;48077;48.104;11.702;2023-07-31T03:01:34;95534.34;;;13.89;100.00
62103;BME280;48077;48.104;11.702;2023-07-31T03:03:58;95556.41;;;13.96;100.00
62103;BME280;48077;48.104;11.702;2023-07-31T03:06:21;95549.00;;;13.81;100.00
62103;BME280;48077;48.104;11.702;2023-07-31T03:08:44;95558.66;;;13.82;100.00
62103;BME280;48077;48.104;11.702;2023-07-31T03:11:08;95545.72;;;13.74;100.00
62103;BME280;48077;48.104;11.702;2023-07-31T03:13:31;95548.63;;;13.72;100.00
62103;BME280;48077;48.104;11.702;2023-07-31T03:15:54;95545.09;;;13.67;100.00
62103;BME280;48077;48.104;11.702;2023-07-31T03:18:18;95532.06;;;13.53;100.00
62103;BME280;48077;48.104;11.702;2023-07-31T03:20:44;95547.09;;;13.54;100.00
62103;BME280;48077;48.104;11.702;2023-07-31T03:23:08;95550.59;;;13.55;100.00
62103;BME280;48077;48.104;11.702;2023-07-31T03:25:31;95518.25;;;13.40;100.00
62103;BME280;48077;48.104;11.702;2023-07-31T03:27:54;95532.13;;;13.36;100.00
62103;BME280;48077;48.104;11.702;2023-07-31T03:30:18;95540.75;;;13.39;100.00
62103;BME280;48077;48.104;11.702;2023-07-31T03:32:43;95548.97;;;13.32;100.00
62103;BME280;48077;48.104;11.702;2023-07-31T03:35:07;95554.31;;;13.32;100.00
62103;BME280;48077;48.104;11.702;2023-07-31T03:37:30;95545.88;;;13.23;100.00
62103;BME280;48077;48.104;11.702;2023-07-31T03:39:53;95558.44;;;13.23;100.00
62103;BME280;48077;48.104;11.702;2023-07-31T03:42:17;95558.06;;;13.14;100.00
62103;BME280;48077;48.104;11.702;2023-07-31T03:44:40;95553.69;;;13.08;100.00
62103;BME280;48077;48.104;11.702;2023-07-31T03:47:07;95563.03;;;13.05;100.00
62103;BME280;48077;48.104;11.702;2023-07-31T03:49:30;95547.38;;;12.97;100.00
62103;BME280;48077;48.104;11.702;2023-07-31T03:51:54;95547.47;;;13.02;100.00
62103;BME280;48077;48.104;11.702;2023-07-31T03:54:17;95560.44;;;13.10;100.00
62103;BME280;48077;48.104;11.702;2023-07-31T03:56:40;95544.22;;;13.00;100.00
62103;BME280;48077;48.104;11.702;2023-07-31T03:59:04;95558.25;;;13.07;100.00
62103;BME280;48077;48.104;11.702;2023-07-31T04:01:27;95553.06;;;13.01;100.00
62103;BME280;48077;48.104;11.702;2023-07-31T04:03:50;95550.41;;;13.01;100.00
62103;BME280;48077;48.104;11.702;2023-07-31T04:06:14;95543.41;;;13.00;100.00
62103;BME280;48077;48.104;11.702;2023-07-31T04:08:41;95554.75;;;13.07;100.00
62103;BME280;48077;48.104;11.702;2023-07-31T04:11:04;95537.00;;;13.01;100.00
62103;BME280;48077;48.104;11.702;2023-07-31T04:13:29;95549.72;;;13.10;100.00
62103;BME280;48077;48.104;11.702;2023-07-31T04:15:52;95544.84;;;13.07;100.00
62103;BME280;48077;48.104;11.702;2023-07-31T04:18:17;95562.09;;;13.16;100.00
62103;BME280;48077;48.104;11.702;2023-07-31T04:20:40;95556.50;;;13.18;100.00
62103;BME280;48077;48.104;11.702;2023-07-31T04:23:04;95554.72;;;13.24;100.00
62103;BME280;48077;48.104;11.702;2023-07-31T04:25:27;95560.16;;;13.29;100.00
62103;BME280;48077;48.104;11.702;2023-07-31T04:27:50;95561.78;;;13.30;100.00
62103;BME280;48077;48.104;11.702;2023-07-31T04:30:14;95540.75;;;13.22;100.00
62103;BME280;48077;48.104;11.702;2023-07-31T04:32:37;95558.38;;;13.34;100.00
62103;BME280;48077;48.104;11.702;2023-07-31T04:35:01;95546.59;;;13.35;100.00
62103;BME280;48077;48.104;11.702;2023-07-31T04:37:24;95557.75;;;13.49;100.00
62103;BME280;48077;48.104;11.702;2023-07-31T04:39:48;95527.16;;;13.45;100.00
62103;BME280;48077;48.104;11.702;2023-07-31T04:42:11;95513.75;;;13.45;100.00
62103;BME280;48077;48.104;11.702;2023-07-31T04:44:35;95532.94;;;13.59;100.00
62103;BME280;48077;48.104;11.702;2023-07-31T04:46:58;95531.38;;;13.63;100.00
62103;BME280;48077;48.104;11.702;2023-07-31T04:49:22;95533.88;;;13.70;100.00
62103;BME280;48077;48.104;11.702;2023-07-31T04:51:45;95542.78;;;13.75;100.00
62103;BME280;48077;48.104;11.702;2023-07-31T04:54:11;95549.47;;;13.73;100.00
62103;BME280;48077;48.104;11.702;2023-07-31T04:56:35;95547.59;;;13.73;100.00
62103;BME280;48077;48.104;11.702;2023-07-31T04:58:59;95532.44;;;13.62;100.00
62103;BME280;48077;48.104;11.702;2023-07-31T05:01:22;95530.31;;;13.64;100.00
62103;BME280;48077;48.104;11.702;2023-07-31T05:03:45;95530.06;;;13.66;100.00
62103;BME280;48077;48.104;11.702;2023-07-31T05:06:11;95523.91;;;13.65;100.00
62103;BME280;48077;48.104;11.702;2023-07-31T05:08:36;95538.00;;;13.77;100.00
62103;BME280;48077;48.104;11.702;2023-07-31T05:10:59;95538.53;;;13.80;100.00
62103;BME280;48077;48.104;11.702;2023-07-31T05:13:23;95535.00;;;13.74;100.00
62103;BME280;48077;48.104;11.702;2023-07-31T05:15:46;95524.28;;;13.74;100.00
62103;BME280;48077;48.104;11.702;2023-07-31T05:18:12;95483.84;;;13.53;100.00
62103;BME280;48077;48.104;11.702;2023-07-31T05:20:38;95471.53;;;13.52;100.00
62103;BME280;48077;48.104;11.702;2023-07-31T05:23:01;95541.72;;;14.04;100.00
62103;BME280;48077;48.104;11.702;2023-07-31T05:25:25;95502.22;;;13.94;100.00
62103;BME280;48077;48.104;11.702;2023-07-31T05:27:48;95509.63;;;14.09;100.00
62103;BME280;48077;48.104;11.702;2023-07-31T05:30:11;95541.81;;;14.41;100.00
62103;BME280;48077;48.104;11.702;2023-07-31T05:32:35;95490.47;;;14.27;100.00
62103;BME280;48077;48.104;11.702;2023-07-31T05:35:00;95540.81;;;14.80;100.00
62103;BME280;48077;48.104;11.702;2023-07-31T05:37:24;95541.69;;;14.95;100.00
62103;BME280;48077;48.104;11.702;2023-07-31T05:39:47;95522.41;;;14.98;100.00
62103;BME280;48077;48.104;11.702;2023-07-31T05:42:11;95524.34;;;15.13;100.00
62103;BME280;48077;48.104;11.702;2023-07-31T05:44:34;95530.09;;;15.32;100.00
62103;BME280;48077;48.104;11.702;2023-07-31T05:46:57;95525.03;;;15.41;99.94
62103;BME280;48077;48.104;11.702;2023-07-31T05:49:21;95524.81;;;15.53;99.46
62103;BME280;48077;48.104;11.702;2023-07-31T05:51:44;95525.41;;;15.65;98.40
62103;BME280;48077;48.104;11.702;2023-07-31T05:54:07;95539.44;;;15.77;98.23
62103;BME280;48077;48.104;11.702;2023-07-31T05:56:31;95537.31;;;15.85;97.47
62103;BME280;48077;48.104;11.702;2023-07-31T05:58:54;95535.19;;;15.92;97.16
62103;BME280;48077;48.104;11.702;2023-07-31T06:01:18;95529.53;;;15.93;96.29
62103;BME280;48077;48.104;11.702;2023-07-31T06:03:41;95526.06;;;16.03;96.87
62103;BME280;48077;48.104;11.702;2023-07-31T06:06:05;95520.16;;;16.06;96.85
62103;BME280;48077;48.104;11.702;2023-07-31T06:08:28;95527.97;;;16.23;96.76
62103;BME280;48077;48.104;11.702;2023-07-31T06:10:52;95530.13;;;16.26;96.51
62103;BME280;48077;48.104;11.702;2023-07-31T06:13:15;95530.13;;;16.36;96.43
62103;BME280;48077;48.104;11.702;2023-07-31T06:15:39;95512.94;;;16.37;94.94
62103;BME280;48077;48.104;11.702;2023-07-31T06:18:02;95515.06;;;16.51;92.92
62103;BME280;48077;48.104;11.702;2023-07-31T06:20:26;95495.41;;;16.45;92.05
62103;BME280;48077;48.104;11.702;2023-07-31T06:22:52;95517.22;;;16.69;89.27
62103;BME280;48077;48.104;11.702;2023-07-31T06:25:15;95518.03;;;16.80;89.78
62103;BME280;48077;48.104;11.702;2023-07-31T06:27:38;95535.81;;;16.96;87.37
62103;BME280;48077;48.104;11.702;2023-07-31T06:30:02;95518.03;;;16.90;85.70
62103;BME280;48077;48.104;11.702;2023-07-31T06:32:25;95521.25;;;16.92;85.34
62103;BME280;48077;48.104;11.702;2023-07-31T06:34:48;95540.34;;;17.11;84.74
62103;BME280;48077;48.104;11.702;2023-07-31T06:37:13;95532.00;;;17.13;83.92
62103;BME280;48077;48.104;11.702;2023-07-31T06:39:36;95516.38;;;17.10;83.37
62103;BME280;48077;48.104;11.702;2023-07-31T06:42:00;95531.41;;;17.26;82.97
62103;BME280;48077;48.104;11.702;2023-07-31T06:44:24;95546.47;;;17.43;83.07
62103;BME280;48077;48.104;11.702;2023-07-31T06:46:47;95543.25;;;17.40;81.88
62103;BME280;48077;48.104;11.702;2023-07-31T06:49:10;95534.66;;;17.33;81.86
62103;BME280;48077;48.104;11.702;2023-07-31T06:51:34;95539.22;;;17.33;81.19
62103;BME280;48077;48.104;11.702;2023-07-31T06:53:59;95525.75;;;17.23;80.29
62103;BME280;48077;48.104;11.702;2023-07-31T06:56:22;95538.44;;;17.27;80.56
62103;BME280;48077;48.104;11.702;2023-07-31T06:58:45;95530.88;;;17.34;80.82
62103;BME280;48077;48.104;11.702;2023-07-31T07:01:09;95523.03;;;17.38;81.99
62103;BME280;48077;48.104;11.702;2023-07-31T07:03:35;95510.63;;;17.42;81.25
62103;BME280;48077;48.104;11.702;2023-07-31T07:05:58;95509.50;;;17.53;81.69
62103;BME280;48077;48.104;11.702;2023-07-31T07:08:21;95506.22;;;17.62;80.59
62103;BME280;48077;48.104;11.702;2023-07-31T07:10:45;95493.84;;;17.60;80.58
62103;BME280;48077;48.104;11.702;2023-07-31T07:13:08;95515.31;;;17.76;80.58
62103;BME280;48077;48.104;11.702;2023-07-31T07:15:32;95507.53;;;17.69;79.92
62103;BME280;48077;48.104;11.702;2023-07-31T07:17:56;95513.97;;;17.78;79.45
62103;BME280;48077;48.104;11.702;2023-07-31T07:20:19;95505.91;;;17.73;78.27
62103;BME280;48077;48.104;11.702;2023-07-31T07:22:43;95520.97;;;17.79;78.62
62103;BME280;48077;48.104;11.702;2023-07-31T07:25:06;95514.75;;;17.79;79.06
62103;BME280;48077;48.104;11.702;2023-07-31T07:27:30;95523.69;;;17.85;77.47
62103;BME280;48077;48.104;11.702;2023-07-31T07:29:54;95512.34;;;17.83;77.18
62103;BME280;48077;48.104;11.702;2023-07-31T07:32:17;95520.66;;;17.91;76.43
62103;BME280;48077;48.104;11.702;2023-07-31T07:34:41;95510.72;;;17.87;74.43
62103;BME280;48077;48.104;11.702;2023-07-31T07:37:05;95517.16;;;17.91;75.43
62103;BME280;48077;48.104;11.702;2023-07-31T07:39:28;95512.88;;;17.90;75.44
62103;BME280;48077;48.104;11.702;2023-07-31T07:41:52;95505.53;;;17.95;74.94
62103;BME280;48077;48.104;11.702;2023-07-31T07:44:16;95522.50;;;18.01;72.81
62103;BME280;48077;48.104;11.702;2023-07-31T07:46:40;95522.78;;;17.99;73.87
62103;BME280;48077;48.104;11.702;2023-07-31T07:49:03;95518.44;;;18.04;74.89
62103;BME280;48077;48.104;11.702;2023-07-31T07:51:27;95518.38;;;18.14;75.60
62103;BME280;48077;48.104;11.702;2023-07-31T07:53:50;95514.00;;;18.23;74.72
62103;BME280;48077;48.104;11.702;2023-07-31T07:56:14;95494.28;;;18.23;73.01
62103;BME280;48077;48.104;11.702;2023-07-31T07:58:37;95510.88;;;18.45;72.75
62103;BME280;48077;48.104;11.702;2023-07-31T08:01:00;95481.88;;;18.56;71.88
62103;BME280;48077;48.104;11.702;2023-07-31T08:03:24;95479.06;;;18.71;71.10
62103;BME280;48077;48.104;11.702;2023-07-31T08:05:47;95463.91;;;18.75;70.61
62103;BME280;48077;48.104;11.702;2023-07-31T08:08:17;95481.97;;;18.80;71.12
62103;BME280;48077;48.104;11.702;2023-07-31T08:10:40;95465.50;;;18.76;71.88
62103;BME280;48077;48.104;11.702;2023-07-31T08:13:04;95465.56;;;18.71;71.49
62103;BME280;48077;48.104;11.702;2023-07-31T08:15:27;95464.69;;;18.76;71.03
62103;BME280;48077;48.104;11.702;2023-07-31T08:17:50;95473.25;;;18.88;70.86
62103;BME280;48077;48.104;11.702;2023-07-31T08:20:14;95461.06;;;18.91;70.74
62103;BME280;48077;48.104;11.702;2023-07-31T08:22:37;95465.78;;;19.04;70.51
62103;BME280;48077;48.104;11.702;2023-07-31T08:25:01;95475.91;;;19.17;69.06
62103;BME280;48077;48.104;11.702;2023-07-31T08:27:24;95478.03;;;19.20;68.65
62103;BME280;48077;48.104;11.702;2023-07-31T08:29:47;95473.63;;;19.30;68.17
62103;BME280;48077;48.104;11.702;2023-07-31T08:32:11;95464.78;;;19.43;67.25
62103;BME280;48077;48.104;11.702;2023-07-31T08:34:34;95464.91;;;19.57;67.25
62103;BME280;48077;48.104;11.702;2023-07-31T08:36:57;95456.94;;;19.66;67.35
62103;BME280;48077;48.104;11.702;2023-07-31T08:39:21;95470.22;;;19.86;65.45
62103;BME280;48077;48.104;11.702;2023-07-31T08:41:44;95475.88;;;19.90;65.81
62103;BME280;48077;48.104;11.702;2023-07-31T08:44:07;95471.75;;;19.92;65.64
62103;BME280;48077;48.104;11.702;2023-07-31T08:46:32;95465.09;;;19.85;61.86
62103;BME280;48077;48.104;11.702;2023-07-31T08:48:56;95449.59;;;19.71;62.22
62103;BME280;48077;48.104;11.702;2023-07-31T08:51:21;95456.38;;;19.69;62.90
62103;BME280;48077;48.104;11.702;2023-07-31T08:53:45;95466.38;;;19.68;63.47
62103;BME280;48077;48.104;11.702;2023-07-31T08:56:09;95467.75;;;19.66;63.54
62103;BME280;48077;48.104;11.702;2023-07-31T08:58:33;95470.31;;;19.57;63.27
62103;BME280;48077;48.104;11.702;2023-07-31T09:01:00;95456.69;;;19.43;64.05
62103;BME280;48077;48.104;11.702;2023-07-31T09:03:25;95476.41;;;19.44;64.16
62103;BME280;48077;48.104;11.702;2023-07-31T09:05:50;95459.56;;;19.28;64.42
62103;BME280;48077;48.104;11.702;2023-07-31T09:08:14;95449.44;;;19.14;62.13
62103;BME280;48077;48.104;11.702;2023-07-31T09:10:44;95465.53;;;19.25;62.50
62103;BME280;48077;48.104;11.702;2023-07-31T09:13:11;95459.41;;;19.19;62.32
62103;BME280;48077;48.104;11.702;2023-07-31T09:15:36;95467.41;;;19.29;62.78
62103;BME280;48077;48.104;11.702;2023-07-31T09:18:01;95455.66;;;19.39;63.06
62103;BME280;48077;48.104;11.702;2023-07-31T09:20:25;95457.34;;;19.54;62.62
62103;BME280;48077;48.104;11.702;2023-07-31T09:22:48;95458.03;;;19.65;62.12
62103;BME280;48077;48.104;11.702;2023-07-31T09:25:19;95451.47;;;19.71;62.10
62103;BME280;48077;48.104;11.702;2023-07-31T09:28:08;95465.19;;;19.98;61.12
62103;BME280;48077;48.104;11.702;2023-07-31T09:30:30;95438.91;;;19.99;60.76
62103;BME280;48077;48.104;11.702;2023-07-31T09:33:03;95447.28;;;20.16;60.34
62103;BME280;48077;48.104;11.702;2023-07-31T09:35:34;95445.16;;;20.32;60.02
62103;BME280;48077;48.104;11.702;2023-07-31T09:38:00;95452.84;;;20.44;59.69
62103;BME280;48077;48.104;11.702;2023-07-31T09:42:50;95451.03;;;20.53;59.37
62103;BME280;48077;48.104;11.702;2023-07-31T09:45:14;95455.22;;;20.65;59.56
62103;BME280;48077;48.104;11.702;2023-07-31T09:47:37;95431.66;;;20.65;59.70
62103;BME280;48077;48.104;11.702;2023-07-31T09:50:00;95444.59;;;20.68;59.57
62103;BME280;48077;48.104;11.702;2023-07-31T09:52:26;95449.81;;;20.65;57.39
62103;BME280;48077;48.104;11.702;2023-07-31T09:54:49;95428.31;;;20.68;57.11
62103;BME280;48077;48.104;11.702;2023-07-31T09:57:13;95430.88;;;20.92;56.26
62103;BME280;48077;48.104;11.702;2023-07-31T09:59:40;95427.25;;;21.25;55.10
62103;BME280;48077;48.104;11.702;2023-07-31T10:02:04;95418.75;;;21.31;54.65
62103;BME280;48077;48.104;11.702;2023-07-31T10:04:27;95425.84;;;21.41;54.26
62103;BME280;48077;48.104;11.702;2023-07-31T10:06:53;95425.16;;;21.49;53.46
62103;BME280;48077;48.104;11.702;2023-07-31T10:09:18;95392.72;;;21.44;54.35
62103;BME280;48077;48.104;11.702;2023-07-31T10:11:45;95398.72;;;21.55;54.66
62103;BME280;48077;48.104;11.702;2023-07-31T10:14:13;95383.28;;;21.28;54.28
62103;BME280;48077;48.104;11.702;2023-07-31T10:16:38;95405.75;;;21.56;54.65
62103;BME280;48077;48.104;11.702;2023-07-31T10:19:02;95380.38;;;21.74;54.40
62103;BME280;48077;48.104;11.702;2023-07-31T10:21:26;95396.41;;;21.98;54.05
62103;BME280;48077;48.104;11.702;2023-07-31T10:23:50;95379.22;;;21.89;54.48
62103;BME280;48077;48.104;11.702;2023-07-31T10:26:16;95365.47;;;22.08;50.75
62103;BME280;48077;48.104;11.702;2023-07-31T10:28:40;95381.19;;;22.34;51.42
62103;BME280;48077;48.104;11.702;2023-07-31T10:31:05;95371.34;;;22.24;51.27
62103;BME280;48077;48.104;11.702;2023-07-31T10:33:31;95343.69;;;22.22;51.70
62103;BME280;48077;48.104;11.702;2023-07-31T10:36:21;95364.97;;;22.51;50.42
62103;BME280;48077;48.104;11.702;2023-07-31T10:38:45;95351.94;;;22.71;49.98
62103;BME280;48077;48.104;11.702;2023-07-31T10:41:09;95344.94;;;22.78;50.51
62103;BME280;48077;48.104;11.702;2023-07-31T10:43:35;95343.03;;;22.79;47.24
62103;BME280;48077;48.104;11.702;2023-07-31T10:46:00;95354.03;;;23.05;47.62
62103;BME280;48077;48.104;11.702;2023-07-31T10:48:33;95351.81;;;23.16;50.68
62103;BME280;48077;48.104;11.702;2023-07-31T10:50:57;95364.63;;;23.15;48.73
62103;BME280;48077;48.104;11.702;2023-07-31T10:53:26;95355.19;;;22.81;47.11
62103;BME280;48077;48.104;11.702;2023-07-31T10:55:49;95342.13;;;22.52;47.86
62103;BME280;48077;48.104;11.702;2023-07-31T10:58:20;95355.53;;;22.49;48.47
62103;BME280;48077;48.104;11.702;2023-07-31T11:00:46;95356.59;;;22.39;48.77
62103;BME280;48077;48.104;11.702;2023-07-31T11:03:13;95362.47;;;22.32;51.01
62103;BME280;48077;48.104;11.702;2023-07-31T11:06:01;95340.59;;;22.15;49.61
62103;BME280;48077;48.104;11.702;2023-07-31T11:08:27;95345.59;;;22.21;50.23
62103;BME280;48077;48.104;11.702;2023-07-31T11:11:05;95352.53;;;22.28;50.60
62103;BME280;48077;48.104;11.702;2023-07-31T11:16:08;95336.44;;;22.71;47.50
62103;BME280;48077;48.104;11.702;2023-07-31T11:18:32;95329.06;;;23.12;47.45
62103;BME280;48077;48.104;11.702;2023-07-31T11:20:55;95331.56;;;22.91;47.46
62103;BME280;48077;48.104;11.702;2023-07-31T11:23:19;95335.47;;;23.07;48.36
62103;BME280;48077;48.104;11.702;2023-07-31T11:25:42;95328.19;;;23.42;47.52
62103;BME280;48077;48.104;11.702;2023-07-31T11:28:07;95315.66;;;23.33;46.27
62103;BME280;48077;48.104;11.702;2023-07-31T11:30:31;95312.44;;;23.05;46.58
62103;BME280;48077;48.104;11.702;2023-07-31T11:32:55;95324.59;;;23.16;47.21
62103;BME280;48077;48.104;11.702;2023-07-31T11:35:19;95321.41;;;23.14;45.89
62103;BME280;48077;48.104;11.702;2023-07-31T11:37:43;95306.53;;;23.29;45.55
62103;BME280;48077;48.104;11.702;2023-07-31T11:40:07;95320.50;;;23.71;46.73
62103;BME280;48077;48.104;11.702;2023-07-31T11:42:33;95295.84;;;23.84;45.52
62103;BME280;48077;48.104;11.702;2023-07-31T11:44:56;95292.94;;;24.07;44.82
62103;BME280;48077;48.104;11.702;2023-07-31T11:47:20;95290.84;;;24.13;44.15
62103;BME280;48077;48.104;11.702;2023-07-31T11:49:44;95306.13;;;24.43;44.59
62103;BME280;48077;48.104;11.702;2023-07-31T11:52:07;95299.38;;;24.67;45.07
62103;BME280;48077;48.104;11.702;2023-07-31T11:54:31;95293.91;;;24.67;43.63
62103;BME280;48077;48.104;11.702;2023-07-31T11:56:54;95288.31;;;24.63;43.85
62103;BME280;48077;48.104;11.702;2023-07-31T11:59:17;95275.94;;;24.66;42.61
62103;BME280;48077;48.104;11.702;2023-07-31T12:01:41;95261.75;;;25.11;42.11
62103;BME280;48077;48.104;11.702;2023-07-31T12:04:04;95276.13;;;25.62;43.88
62103;BME280;48077;48.104;11.702;2023-07-31T12:06:35;95257.94;;;25.88;42.68
62103;BME280;48077;48.104;11.702;2023-07-31T12:09:05;95265.25;;;26.17;41.81
62103;BME280;48077;48.104;11.702;2023-07-31T12:11:28;95260.63;;;26.54;43.78
62103;BME280;48077;48.104;11.702;2023-07-31T12:13:51;95247.09;;;26.70;40.95
62103;BME280;48077;48.104;11.702;2023-07-31T12:16:15;95245.00;;;26.55;38.76
62103;BME280;48077;48.104;11.702;2023-07-31T12:18:39;95244.00;;;26.72;39.50
62103;BME280;48077;48.104;11.702;2023-07-31T12:21:05;95226.69;;;26.92;38.94
62103;BME280;48077;48.104;11.702;2023-07-31T12:23:31;95233.25;;;27.03;38.70
62103;BME280;48077;48.104;11.702;2023-07-31T12:26:00;95234.59;;;27.34;37.87
62103;BME280;48077;48.104;11.702;2023-07-31T12:28:24;95225.50;;;27.30;35.93
62103;BME280;48077;48.104;11.702;2023-07-31T12:30:47;95226.19;;;27.15;36.49
62103;BME280;48077;48.104;11.702;2023-07-31T12:33:14;95230.09;;;26.52;35.98
62103;BME280;48077;48.104;11.702;2023-07-31T12:35:41;95200.63;;;26.12;37.83
62103;BME280;48077;48.104;11.702;2023-07-31T12:38:04;95212.06;;;26.27;38.10
62103;BME280;48077;48.104;11.702;2023-07-31T12:40:28;95213.53;;;27.22;37.16
62103;BME280;48077;48.104;11.702;2023-07-31T12:42:51;95197.13;;;26.98;36.68
62103;BME280;48077;48.104;11.702;2023-07-31T12:45:15;95197.16;;;26.85;38.69
62103;BME280;48077;48.104;11.702;2023-07-31T12:47:38;95194.78;;;26.84;36.39